Terminal Aerodrome Forecast
Issued by NWS

Home | Current Version | Previous Version | Graphics & Text | Print | Product List | Glossary On
Versions: 1 2 3 4 5 6 7 8 9 10 11 12 13 14 15 16 17 18 19
000
FTUS43 KMPX 230900 AAA
TAFRWF
TAF AMD
KRWF 230904Z 2309/2406 08006KT 6SM BR SCT030 OVC120
     FM231300 10009KT P6SM VCSH SCT015 OVC050
     FM231600 12014G22KT P6SM SCT040 BKN080
     FM240300 13011KT P6SM VCTS SCT030CB BKN060=

USA.gov is the U.S. government's official web portal to all federal, state and local government web resources and services.